createdAt,value
2023-05-04T00:03:23.809Z,7.17
2023-05-04T00:08:25.869Z,7.35
2023-05-04T00:13:27.858Z,7.46
2023-05-04T00:18:31.349Z,7.66
2023-05-04T00:23:33.632Z,7.64
2023-05-04T00:28:35.929Z,7.74
2023-05-04T00:33:39.166Z,7.77
2023-05-04T00:38:49.017Z,7.73
2023-05-04T00:43:50.968Z,7.72
2023-05-04T00:48:54.294Z,7.79
2023-05-04T00:53:57.695Z,7.74
2023-05-04T00:58:59.672Z,7.69
2023-05-04T01:04:03.419Z,7.69
2023-05-04T01:09:10.816Z,7.64
2023-05-04T01:14:14.518Z,7.49
2023-05-04T01:19:17.828Z,7.45
2023-05-04T01:24:21.490Z,7.48
2023-05-04T01:29:31.555Z,7.47
2023-05-04T01:34:34.331Z,7.53
2023-05-04T01:39:37.688Z,7.57
2023-05-04T01:44:40.478Z,7.47
2023-05-04T01:49:42.454Z,7.51
2023-05-04T01:54:45.730Z,7.47
2023-05-04T01:59:47.644Z,7.48
2023-05-04T02:04:49.588Z,7.55
2023-05-04T02:09:52.853Z,7.54
2023-05-04T02:14:54.779Z,7.38
2023-05-04T02:19:56.700Z,7.41
2023-05-04T02:24:59.975Z,7.40
2023-05-04T02:30:02.014Z,7.20
2023-05-04T02:35:04.398Z,7.06
2023-05-04T02:40:09.098Z,6.96
2023-05-04T02:45:12.004Z,6.82
2023-05-04T02:50:14.025Z,6.72
2023-05-04T02:55:17.344Z,6.68
2023-05-04T03:00:19.657Z,6.47
2023-05-04T03:05:21.997Z,6.35
2023-05-04T03:10:25.335Z,6.36
2023-05-04T03:15:27.305Z,6.11
2023-05-04T03:20:29.278Z,5.98
2023-05-04T03:25:32.606Z,5.98
2023-05-04T03:30:35.769Z,5.90
2023-05-04T03:35:37.730Z,6.01
2023-05-04T03:40:41.026Z,5.94
2023-05-04T03:45:43.039Z,5.98
2023-05-04T03:50:45.288Z,6.01
2023-05-04T03:55:48.548Z,6.10
2023-05-04T04:00:50.511Z,6.28
2023-05-04T04:05:52.522Z,6.23
2023-05-04T04:10:55.788Z,6.27
2023-05-04T04:15:57.678Z,6.31
2023-05-04T04:20:59.751Z,6.28
2023-05-04T04:26:06.183Z,6.21
2023-05-04T04:31:09.338Z,5.87
2023-05-04T04:36:12.667Z,5.86
2023-05-04T04:41:16.452Z,6.17
2023-05-04T04:46:19.207Z,6.28
2023-05-04T04:51:21.687Z,6.44
2023-05-04T04:56:25.009Z,6.50
2023-05-04T05:01:27.293Z,6.70
2023-05-04T05:06:29.217Z,6.94
2023-05-04T05:11:32.803Z,7.21
2023-05-04T05:16:34.849Z,7.38
2023-05-04T05:21:36.901Z,7.68
2023-05-04T05:26:40.705Z,8.05
2023-05-04T05:31:42.611Z,8.33
2023-05-04T05:36:44.727Z,8.60
2023-05-04T05:41:48.066Z,8.78
2023-05-04T05:46:50.044Z,8.88
2023-05-04T05:51:52.240Z,9.05
2023-05-04T05:56:55.602Z,9.09
2023-05-04T06:01:57.577Z,9.22
2023-05-04T06:06:59.561Z,9.18
2023-05-04T06:12:03.344Z,9.35
2023-05-04T06:17:05.312Z,9.40
2023-05-04T06:22:07.577Z,9.57
2023-05-04T06:27:10.944Z,9.83
2023-05-04T06:32:12.962Z,9.78
2023-05-04T06:37:16.142Z,10.09
2023-05-04T06:42:19.537Z,10.52
2023-05-04T06:47:21.579Z,10.71
2023-05-04T06:52:23.693Z,11.25
2023-05-04T06:57:27.719Z,11.89
2023-05-04T07:02:29.734Z,11.61
2023-05-04T07:07:31.779Z,11.59
2023-05-04T07:12:35.326Z,11.60
2023-05-04T07:17:37.790Z,10.95
2023-05-04T07:22:39.809Z,10.94
2023-05-04T07:27:45.059Z,11.17
2023-05-04T07:32:47.284Z,11.49
2023-05-04T07:37:50.058Z,11.86
2023-05-04T07:42:53.212Z,12.07
2023-05-04T07:47:55.153Z,11.86
2023-05-04T07:52:57.189Z,12.02
2023-05-04T07:58:00.643Z,11.93
2023-05-04T08:03:02.588Z,12.05
2023-05-04T08:08:04.861Z,12.17
2023-05-04T08:13:08.258Z,11.71
2023-05-04T08:18:10.759Z,11.64
2023-05-04T08:23:13.766Z,11.94
2023-05-04T08:28:17.428Z,11.69
2023-05-04T08:33:19.866Z,12.19
2023-05-04T08:38:22.102Z,12.57
2023-05-04T08:43:25.481Z,12.76
2023-05-04T08:48:27.615Z,12.56
2023-05-04T08:53:31.282Z,12.50
2023-05-04T08:58:38.157Z,12.49
2023-05-04T09:03:41.294Z,12.88
2023-05-04T09:08:43.407Z,12.67
2023-05-04T09:13:47.651Z,12.78
2023-05-04T09:18:49.566Z,12.84
2023-05-04T09:23:51.724Z,12.82
2023-05-04T09:28:55.155Z,12.89
2023-05-04T09:33:57.111Z,13.06
2023-05-04T09:39:11.228Z,13.29
2023-05-04T09:44:22.345Z,13.51
2023-05-04T09:49:31.887Z,13.09
2023-05-04T09:54:35.308Z,13.58
2023-05-04T09:59:39.184Z,13.51
2023-05-04T10:04:43.157Z,13.50
2023-05-04T10:09:47.884Z,13.22
2023-05-04T10:14:51.761Z,13.23
2023-05-04T10:20:07.167Z,13.45
2023-05-04T10:25:36.523Z,13.50
2023-05-04T10:30:40.094Z,13.51
2023-05-04T10:35:51.260Z,13.90
2023-05-04T10:40:53.746Z,14.29
2023-05-04T10:45:57.721Z,13.82
2023-05-04T10:50:59.832Z,13.96
2023-05-04T10:56:01.784Z,13.93
2023-05-04T11:01:12.563Z,14.15
2023-05-04T11:06:21.065Z,14.27
2023-05-04T11:11:25.725Z,14.53
2023-05-04T11:16:29.309Z,14.71
2023-05-04T11:21:31.814Z,14.54
2023-05-04T11:26:33.624Z,14.24
2023-05-04T11:31:36.946Z,14.24
2023-05-04T11:36:39.365Z,14.47
2023-05-04T11:41:42.807Z,14.65
2023-05-04T11:46:47.812Z,14.36
2023-05-04T11:51:49.865Z,14.28
2023-05-04T11:56:51.845Z,14.39
2023-05-04T12:01:56.036Z,14.59
2023-05-04T12:07:00.204Z,14.58
2023-05-04T12:12:03.819Z,14.93
2023-05-04T12:17:07.094Z,14.65
2023-05-04T12:22:09.674Z,14.76
2023-05-04T12:27:14.954Z,14.59
2023-05-04T12:32:18.398Z,14.93
2023-05-04T12:37:20.323Z,14.49
2023-05-04T12:42:22.547Z,14.68
2023-05-04T12:47:26.186Z,14.54
2023-05-04T12:52:28.146Z,14.74
2023-05-04T12:57:30.100Z,15.06
2023-05-04T13:02:33.484Z,14.94
2023-05-04T13:07:36.201Z,15.24
2023-05-04T13:12:38.745Z,15.41
2023-05-04T13:17:45.094Z,15.31
2023-05-04T13:22:50.508Z,15.33
2023-05-04T13:27:52.744Z,15.31
2023-05-04T13:32:56.167Z,15.36
2023-05-04T13:37:58.162Z,15.29
2023-05-04T13:43:00.086Z,15.31
2023-05-04T13:48:04.387Z,14.98
2023-05-04T13:53:06.554Z,15.15
2023-05-04T13:58:08.605Z,15.39
2023-05-04T14:03:12.674Z,14.97
2023-05-04T14:08:14.702Z,15.39
2023-05-04T14:13:16.983Z,15.22
2023-05-04T14:18:21.031Z,15.40
2023-05-04T14:23:23.108Z,15.25
2023-05-04T14:28:26.058Z,15.53
2023-05-04T14:33:29.333Z,15.68
2023-05-04T14:38:32.629Z,15.67
2023-05-04T14:43:34.793Z,15.56
2023-05-04T14:48:38.273Z,15.69
2023-05-04T14:53:40.968Z,15.64
2023-05-04T14:58:42.980Z,15.33
2023-05-04T15:03:46.321Z,15.49
2023-05-04T15:08:48.325Z,15.60
2023-05-04T15:13:50.695Z,15.65
2023-05-04T15:18:53.849Z,15.71
2023-05-04T15:23:55.999Z,15.57
2023-05-04T15:28:58.279Z,15.47
2023-05-04T15:34:02.585Z,15.48
2023-05-04T15:39:05.764Z,15.53
2023-05-04T15:44:07.806Z,15.42
2023-05-04T15:49:11.107Z,15.25
2023-05-04T15:54:13.095Z,15.64
2023-05-04T15:59:17.306Z,15.26
2023-05-04T16:04:20.853Z,15.94
2023-05-04T16:09:22.828Z,16.61
2023-05-04T16:14:24.831Z,16.11
2023-05-04T16:19:28.267Z,16.28
2023-05-04T16:24:30.232Z,16.15
2023-05-04T16:29:32.335Z,16.20
2023-05-04T16:34:35.653Z,14.99
2023-05-04T16:39:38.042Z,15.01
2023-05-04T16:44:40.087Z,14.80
2023-05-04T16:49:43.616Z,14.24
2023-05-04T16:54:45.684Z,14.12
2023-05-04T16:59:47.673Z,13.89
2023-05-04T17:04:51.077Z,13.57
2023-05-04T17:09:53.116Z,13.35
2023-05-04T17:14:55.128Z,13.10
2023-05-04T17:19:58.427Z,12.73
2023-05-04T17:25:00.392Z,12.57
2023-05-04T17:30:02.361Z,12.29
2023-05-04T17:35:20.176Z,11.97
2023-05-04T17:40:26.193Z,11.65
2023-05-04T17:45:28.212Z,11.28
2023-05-04T17:50:31.591Z,11.02
2023-05-04T17:55:33.637Z,10.76
2023-05-04T18:00:36.916Z,10.35
2023-05-04T18:05:41.671Z,10.07
2023-05-04T18:10:43.624Z,9.96
2023-05-04T18:15:45.736Z,9.55
2023-05-04T18:20:49.017Z,9.42
2023-05-04T18:25:51.324Z,9.35
2023-05-04T18:30:53.413Z,9.10
2023-05-04T18:35:56.725Z,8.94
2023-05-04T18:40:58.679Z,8.71
2023-05-04T18:46:06.422Z,8.63
2023-05-04T18:51:10.054Z,8.45
2023-05-04T18:56:12.107Z,8.35
2023-05-04T19:01:14.090Z,8.23
2023-05-04T19:06:17.474Z,8.14
2023-05-04T19:11:19.886Z,8.05
2023-05-04T19:16:22.662Z,7.97
2023-05-04T19:21:27.685Z,8.26
2023-05-04T19:26:29.726Z,8.49
2023-05-04T19:31:31.781Z,8.47
2023-05-04T19:36:35.144Z,8.47
2023-05-04T19:41:37.157Z,8.30
2023-05-04T19:46:39.376Z,8.18
2023-05-04T19:51:42.862Z,8.06
2023-05-04T19:56:44.878Z,8.13
2023-05-04T20:01:47.042Z,8.46
2023-05-04T20:06:50.539Z,8.28
2023-05-04T20:11:52.488Z,8.41
2023-05-04T20:16:55.855Z,8.76
2023-05-04T20:21:59.264Z,9.15
2023-05-04T20:27:01.315Z,9.29
2023-05-04T20:32:05.105Z,9.40
2023-05-04T20:37:08.935Z,9.57
2023-05-04T20:42:10.898Z,9.79
2023-05-04T20:47:12.941Z,9.85
2023-05-04T20:52:16.431Z,9.82
2023-05-04T20:57:18.457Z,9.84
2023-05-04T21:02:20.633Z,9.81
2023-05-04T21:07:24.037Z,9.81
2023-05-04T21:12:26.450Z,9.73
2023-05-04T21:17:28.487Z,9.81
2023-05-04T21:22:32.075Z,9.77
2023-05-04T21:27:34.138Z,9.88
2023-05-04T21:32:36.282Z,9.84
2023-05-04T21:37:39.598Z,9.83
2023-05-04T21:42:41.663Z,9.52
2023-05-04T21:47:43.667Z,9.14
2023-05-04T21:52:47.020Z,8.62
2023-05-04T21:57:48.975Z,8.22
2023-05-04T22:02:53.651Z,7.85
2023-05-04T22:07:56.987Z,7.72
2023-05-04T22:12:59.011Z,7.52
2023-05-04T22:18:01.054Z,7.27
2023-05-04T22:23:04.440Z,7.02
2023-05-04T22:28:06.651Z,7.01
2023-05-04T22:33:08.688Z,6.81
2023-05-04T22:38:14.158Z,6.70
2023-05-04T22:43:16.280Z,6.54
2023-05-04T22:48:19.955Z,6.47
2023-05-04T22:53:23.446Z,6.34
2023-05-04T22:58:25.764Z,6.04
2023-05-04T23:03:27.914Z,5.79
2023-05-04T23:08:31.439Z,5.52
2023-05-04T23:13:34.499Z,5.51
2023-05-04T23:18:36.556Z,5.46
2023-05-04T23:23:41.387Z,5.56
2023-05-04T23:28:43.397Z,5.53
2023-05-04T23:33:45.375Z,5.37
2023-05-04T23:38:48.687Z,5.20
2023-05-04T23:43:50.561Z,5.06
2023-05-04T23:48:52.844Z,4.85
2023-05-04T23:53:56.168Z,4.74
2023-05-04T23:58:58.018Z,4.71
